Palestine, Illinois
Current Conditions -  °F | °C
As of 10:35 PM on Wednesday 26 Nov 2014 (Local Time) from KRSV Reporting Station
Light Snow Light Snow  
Wind Chill: 26°   Ceiling: 2200
Heat Index: 32°   Visibility: 10mi
Dew Point: 29°   Wind: 7mph
Humidity: 88%   Direction: 340°NNW
Pressure: 30.13"   Gusts: NA
Location:  39°N, 87.61°W
Report Text: KRSV 270435Z AUTO 34006KT 10SM -SN OVC022 00/M02 A3013 RMK AO2 T00001017
Loading
Personal Weather Stations






























Interactive Weather Map New forecast layout! Learn more

10-Day Weather Forecast

Advertisements
Track Severe Weather on mobile